sensor_id;sensor_type;location;lat;lon;timestamp;P1;durP1;ratioP1;P2;durP2;ratioP2
15130;SDS011;7666;50.920;4.628;2022-12-11T00:01:15;21.13;;;14.50;;
15130;SDS011;7666;50.920;4.628;2022-12-11T00:04:03;20.53;;;15.03;;
15130;SDS011;7666;50.920;4.628;2022-12-11T00:06:49;19.40;;;14.47;;
15130;SDS011;7666;50.920;4.628;2022-12-11T00:09:35;18.33;;;14.27;;
15130;SDS011;7666;50.920;4.628;2022-12-11T00:12:21;19.97;;;14.50;;
15130;SDS011;7666;50.920;4.628;2022-12-11T00:15:08;19.10;;;13.67;;
15130;SDS011;7666;50.920;4.628;2022-12-11T00:17:54;16.73;;;13.03;;
15130;SDS011;7666;50.920;4.628;2022-12-11T00:20:40;17.10;;;13.13;;
15130;SDS011;7666;50.920;4.628;2022-12-11T00:23:26;17.57;;;12.30;;
15130;SDS011;7666;50.920;4.628;2022-12-11T00:26:13;17.83;;;13.20;;
15130;SDS011;7666;50.920;4.628;2022-12-11T00:29:00;17.97;;;12.90;;
15130;SDS011;7666;50.920;4.628;2022-12-11T00:31:46;16.23;;;13.27;;
15130;SDS011;7666;50.920;4.628;2022-12-11T00:34:32;18.27;;;13.93;;
15130;SDS011;7666;50.920;4.628;2022-12-11T00:37:18;19.57;;;13.03;;
15130;SDS011;7666;50.920;4.628;2022-12-11T00:40:04;17.77;;;13.17;;
15130;SDS011;7666;50.920;4.628;2022-12-11T00:42:50;19.30;;;13.83;;
15130;SDS011;7666;50.920;4.628;2022-12-11T00:45:37;18.70;;;14.03;;
15130;SDS011;7666;50.920;4.628;2022-12-11T00:48:25;17.20;;;13.23;;
15130;SDS011;7666;50.920;4.628;2022-12-11T00:51:11;15.90;;;12.83;;
15130;SDS011;7666;50.920;4.628;2022-12-11T00:53:57;15.23;;;12.47;;
15130;SDS011;7666;50.920;4.628;2022-12-11T00:56:43;18.90;;;12.57;;
15130;SDS011;7666;50.920;4.628;2022-12-11T00:59:29;19.80;;;14.47;;
15130;SDS011;7666;50.920;4.628;2022-12-11T01:02:15;19.83;;;13.37;;
15130;SDS011;7666;50.920;4.628;2022-12-11T01:05:01;21.37;;;14.77;;
15130;SDS011;7666;50.920;4.628;2022-12-11T01:07:47;19.53;;;13.70;;
15130;SDS011;7666;50.920;4.628;2022-12-11T01:10:33;18.70;;;13.17;;
15130;SDS011;7666;50.920;4.628;2022-12-11T01:13:19;18.07;;;14.00;;
15130;SDS011;7666;50.920;4.628;2022-12-11T01:16:09;18.57;;;14.07;;
15130;SDS011;7666;50.920;4.628;2022-12-11T01:18:57;18.70;;;14.13;;
15130;SDS011;7666;50.920;4.628;2022-12-11T01:21:43;18.53;;;13.37;;
15130;SDS011;7666;50.920;4.628;2022-12-11T01:24:29;17.67;;;14.60;;
15130;SDS011;7666;50.920;4.628;2022-12-11T01:27:15;17.53;;;13.97;;
15130;SDS011;7666;50.920;4.628;2022-12-11T01:30:02;19.83;;;14.63;;
15130;SDS011;7666;50.920;4.628;2022-12-11T01:32:49;21.10;;;14.93;;
15130;SDS011;7666;50.920;4.628;2022-12-11T01:35:37;19.10;;;13.83;;
15130;SDS011;7666;50.920;4.628;2022-12-11T01:38:23;20.97;;;14.63;;
15130;SDS011;7666;50.920;4.628;2022-12-11T01:41:09;18.40;;;14.27;;
15130;SDS011;7666;50.920;4.628;2022-12-11T01:44:04;21.70;;;14.77;;
15130;SDS011;7666;50.920;4.628;2022-12-11T01:46:52;19.50;;;14.70;;
15130;SDS011;7666;50.920;4.628;2022-12-11T01:49:38;20.07;;;14.90;;
15130;SDS011;7666;50.920;4.628;2022-12-11T01:52:25;20.30;;;15.73;;
15130;SDS011;7666;50.920;4.628;2022-12-11T01:55:11;20.70;;;14.83;;
15130;SDS011;7666;50.920;4.628;2022-12-11T01:57:58;20.60;;;14.50;;
15130;SDS011;7666;50.920;4.628;2022-12-11T02:00:44;20.63;;;15.17;;
15130;SDS011;7666;50.920;4.628;2022-12-11T02:03:31;21.50;;;15.77;;
15130;SDS011;7666;50.920;4.628;2022-12-11T02:06:27;22.37;;;15.33;;
15130;SDS011;7666;50.920;4.628;2022-12-11T02:09:26;21.73;;;15.73;;
15130;SDS011;7666;50.920;4.628;2022-12-11T02:18:02;22.37;;;16.43;;
15130;SDS011;7666;50.920;4.628;2022-12-11T02:31:31;25.23;;;17.53;;
15130;SDS011;7666;50.920;4.628;2022-12-11T02:34:29;23.67;;;17.43;;
15130;SDS011;7666;50.920;4.628;2022-12-11T02:37:22;23.03;;;16.83;;
15130;SDS011;7666;50.920;4.628;2022-12-11T02:40:11;22.40;;;16.70;;
15130;SDS011;7666;50.920;4.628;2022-12-11T02:43:02;21.77;;;16.30;;
15130;SDS011;7666;50.920;4.628;2022-12-11T02:45:50;23.77;;;17.90;;
15130;SDS011;7666;50.920;4.628;2022-12-11T02:48:38;22.60;;;16.43;;
15130;SDS011;7666;50.920;4.628;2022-12-11T02:51:27;25.53;;;17.53;;
15130;SDS011;7666;50.920;4.628;2022-12-11T02:54:16;23.80;;;18.20;;
15130;SDS011;7666;50.920;4.628;2022-12-11T02:57:15;24.30;;;17.40;;
15130;SDS011;7666;50.920;4.628;2022-12-11T03:00:13;24.40;;;18.17;;
15130;SDS011;7666;50.920;4.628;2022-12-11T03:03:01;22.73;;;17.37;;
15130;SDS011;7666;50.920;4.628;2022-12-11T03:05:47;24.97;;;18.00;;
15130;SDS011;7666;50.920;4.628;2022-12-11T03:08:33;24.30;;;18.07;;
15130;SDS011;7666;50.920;4.628;2022-12-11T03:11:19;25.03;;;17.87;;
15130;SDS011;7666;50.920;4.628;2022-12-11T03:14:05;25.50;;;18.30;;
15130;SDS011;7666;50.920;4.628;2022-12-11T03:23:21;24.90;;;18.63;;
15130;SDS011;7666;50.920;4.628;2022-12-11T03:26:17;27.23;;;19.47;;
15130;SDS011;7666;50.920;4.628;2022-12-11T03:29:29;28.03;;;19.60;;
15130;SDS011;7666;50.920;4.628;2022-12-11T03:32:18;26.87;;;18.50;;
15130;SDS011;7666;50.920;4.628;2022-12-11T03:35:10;26.50;;;18.80;;
15130;SDS011;7666;50.920;4.628;2022-12-11T03:38:13;28.17;;;19.10;;
15130;SDS011;7666;50.920;4.628;2022-12-11T03:41:03;26.70;;;19.30;;
15130;SDS011;7666;50.920;4.628;2022-12-11T03:43:52;28.87;;;19.37;;
15130;SDS011;7666;50.920;4.628;2022-12-11T03:46:40;27.07;;;18.70;;
15130;SDS011;7666;50.920;4.628;2022-12-11T03:49:30;31.17;;;19.37;;
15130;SDS011;7666;50.920;4.628;2022-12-11T03:52:20;29.50;;;19.60;;
15130;SDS011;7666;50.920;4.628;2022-12-11T03:55:07;30.57;;;19.63;;
15130;SDS011;7666;50.920;4.628;2022-12-11T03:57:56;27.13;;;19.53;;
15130;SDS011;7666;50.920;4.628;2022-12-11T04:00:42;27.23;;;20.53;;
15130;SDS011;7666;50.920;4.628;2022-12-11T04:03:28;33.20;;;19.53;;
15130;SDS011;7666;50.920;4.628;2022-12-11T04:06:14;29.10;;;19.73;;
15130;SDS011;7666;50.920;4.628;2022-12-11T04:09:00;30.60;;;20.00;;
15130;SDS011;7666;50.920;4.628;2022-12-11T04:11:46;28.17;;;19.10;;
15130;SDS011;7666;50.920;4.628;2022-12-11T04:14:32;27.97;;;19.37;;
15130;SDS011;7666;50.920;4.628;2022-12-11T04:17:36;26.53;;;18.50;;
15130;SDS011;7666;50.920;4.628;2022-12-11T04:20:54;27.40;;;19.23;;
15130;SDS011;7666;50.920;4.628;2022-12-11T04:23:59;26.67;;;18.90;;
15130;SDS011;7666;50.920;4.628;2022-12-11T04:27:00;27.43;;;19.70;;
15130;SDS011;7666;50.920;4.628;2022-12-11T04:29:46;31.17;;;20.63;;
15130;SDS011;7666;50.920;4.628;2022-12-11T04:32:32;28.90;;;19.57;;
15130;SDS011;7666;50.920;4.628;2022-12-11T04:35:19;29.03;;;19.90;;
15130;SDS011;7666;50.920;4.628;2022-12-11T04:38:05;28.50;;;19.40;;
15130;SDS011;7666;50.920;4.628;2022-12-11T04:40:58;26.73;;;19.00;;
15130;SDS011;7666;50.920;4.628;2022-12-11T04:43:45;29.53;;;19.23;;
15130;SDS011;7666;50.920;4.628;2022-12-11T04:46:31;30.10;;;19.77;;
15130;SDS011;7666;50.920;4.628;2022-12-11T04:49:17;29.77;;;20.00;;
15130;SDS011;7666;50.920;4.628;2022-12-11T04:52:03;30.40;;;20.07;;
15130;SDS011;7666;50.920;4.628;2022-12-11T04:54:49;32.20;;;20.53;;
15130;SDS011;7666;50.920;4.628;2022-12-11T04:57:35;31.83;;;21.03;;
15130;SDS011;7666;50.920;4.628;2022-12-11T05:00:22;31.17;;;20.57;;
15130;SDS011;7666;50.920;4.628;2022-12-11T05:03:08;31.60;;;20.40;;
15130;SDS011;7666;50.920;4.628;2022-12-11T05:05:54;29.03;;;19.77;;
15130;SDS011;7666;50.920;4.628;2022-12-11T05:08:40;30.07;;;20.43;;
15130;SDS011;7666;50.920;4.628;2022-12-11T05:11:27;33.13;;;19.87;;
15130;SDS011;7666;50.920;4.628;2022-12-11T05:14:13;32.87;;;20.83;;
15130;SDS011;7666;50.920;4.628;2022-12-11T05:16:59;30.30;;;20.80;;
15130;SDS011;7666;50.920;4.628;2022-12-11T05:19:46;31.00;;;20.40;;
15130;SDS011;7666;50.920;4.628;2022-12-11T05:22:34;31.37;;;20.37;;
15130;SDS011;7666;50.920;4.628;2022-12-11T05:25:20;31.07;;;20.47;;
15130;SDS011;7666;50.920;4.628;2022-12-11T05:28:07;30.70;;;19.90;;
15130;SDS011;7666;50.920;4.628;2022-12-11T05:30:57;33.30;;;20.33;;
15130;SDS011;7666;50.920;4.628;2022-12-11T05:33:45;30.07;;;19.67;;
15130;SDS011;7666;50.920;4.628;2022-12-11T05:36:32;33.57;;;21.03;;
15130;SDS011;7666;50.920;4.628;2022-12-11T05:39:18;31.90;;;20.27;;
15130;SDS011;7666;50.920;4.628;2022-12-11T05:42:04;30.67;;;20.20;;
15130;SDS011;7666;50.920;4.628;2022-12-11T05:44:50;33.77;;;20.40;;
15130;SDS011;7666;50.920;4.628;2022-12-11T05:47:36;32.87;;;20.03;;
15130;SDS011;7666;50.920;4.628;2022-12-11T05:50:22;33.07;;;20.30;;
15130;SDS011;7666;50.920;4.628;2022-12-11T05:53:08;32.07;;;21.10;;
15130;SDS011;7666;50.920;4.628;2022-12-11T05:55:59;32.57;;;20.87;;
15130;SDS011;7666;50.920;4.628;2022-12-11T05:58:47;34.87;;;21.97;;
15130;SDS011;7666;50.920;4.628;2022-12-11T06:01:35;33.40;;;21.50;;
15130;SDS011;7666;50.920;4.628;2022-12-11T06:04:23;32.90;;;20.97;;
15130;SDS011;7666;50.920;4.628;2022-12-11T06:07:09;30.27;;;20.40;;
15130;SDS011;7666;50.920;4.628;2022-12-11T06:09:54;31.37;;;20.67;;
15130;SDS011;7666;50.920;4.628;2022-12-11T06:12:40;33.63;;;22.60;;
15130;SDS011;7666;50.920;4.628;2022-12-11T06:15:26;36.50;;;22.47;;
15130;SDS011;7666;50.920;4.628;2022-12-11T06:18:12;32.13;;;21.17;;
15130;SDS011;7666;50.920;4.628;2022-12-11T06:20:58;32.57;;;21.60;;
15130;SDS011;7666;50.920;4.628;2022-12-11T06:23:45;36.17;;;22.87;;
15130;SDS011;7666;50.920;4.628;2022-12-11T06:26:32;32.03;;;21.07;;
15130;SDS011;7666;50.920;4.628;2022-12-11T06:29:18;31.93;;;21.80;;
15130;SDS011;7666;50.920;4.628;2022-12-11T06:32:04;34.80;;;22.27;;
15130;SDS011;7666;50.920;4.628;2022-12-11T06:34:50;34.47;;;22.43;;
15130;SDS011;7666;50.920;4.628;2022-12-11T06:37:36;35.83;;;23.13;;
15130;SDS011;7666;50.920;4.628;2022-12-11T06:40:22;32.77;;;22.30;;
15130;SDS011;7666;50.920;4.628;2022-12-11T06:43:08;37.67;;;23.43;;
15130;SDS011;7666;50.920;4.628;2022-12-11T06:45:54;32.40;;;22.43;;
15130;SDS011;7666;50.920;4.628;2022-12-11T06:48:41;28.73;;;21.30;;
15130;SDS011;7666;50.920;4.628;2022-12-11T06:51:27;33.10;;;22.60;;
15130;SDS011;7666;50.920;4.628;2022-12-11T06:54:13;32.80;;;22.30;;
15130;SDS011;7666;50.920;4.628;2022-12-11T06:56:59;33.40;;;22.13;;
15130;SDS011;7666;50.920;4.628;2022-12-11T06:59:45;33.20;;;22.27;;
15130;SDS011;7666;50.920;4.628;2022-12-11T07:02:31;31.70;;;21.97;;
15130;SDS011;7666;50.920;4.628;2022-12-11T07:05:17;32.43;;;22.50;;
15130;SDS011;7666;50.920;4.628;2022-12-11T07:08:03;31.33;;;21.73;;
15130;SDS011;7666;50.920;4.628;2022-12-11T07:10:49;30.90;;;21.73;;
15130;SDS011;7666;50.920;4.628;2022-12-11T07:13:35;30.90;;;22.00;;
15130;SDS011;7666;50.920;4.628;2022-12-11T07:16:22;31.13;;;21.43;;
15130;SDS011;7666;50.920;4.628;2022-12-11T07:19:08;31.80;;;22.33;;
15130;SDS011;7666;50.920;4.628;2022-12-11T07:21:54;31.53;;;21.43;;
15130;SDS011;7666;50.920;4.628;2022-12-11T07:24:40;30.30;;;21.03;;
15130;SDS011;7666;50.920;4.628;2022-12-11T07:27:26;33.80;;;22.13;;
15130;SDS011;7666;50.920;4.628;2022-12-11T07:30:12;32.43;;;22.03;;
15130;SDS011;7666;50.920;4.628;2022-12-11T07:32:59;31.17;;;22.57;;
15130;SDS011;7666;50.920;4.628;2022-12-11T07:35:45;34.67;;;22.93;;
15130;SDS011;7666;50.920;4.628;2022-12-11T07:38:31;31.30;;;22.50;;
15130;SDS011;7666;50.920;4.628;2022-12-11T07:41:17;34.23;;;22.50;;
15130;SDS011;7666;50.920;4.628;2022-12-11T07:44:04;36.50;;;24.20;;
15130;SDS011;7666;50.920;4.628;2022-12-11T07:46:50;35.80;;;23.33;;
15130;SDS011;7666;50.920;4.628;2022-12-11T07:49:36;34.73;;;22.60;;
15130;SDS011;7666;50.920;4.628;2022-12-11T07:52:22;33.33;;;23.03;;
15130;SDS011;7666;50.920;4.628;2022-12-11T07:55:08;35.00;;;22.97;;
15130;SDS011;7666;50.920;4.628;2022-12-11T07:57:55;33.17;;;22.23;;
15130;SDS011;7666;50.920;4.628;2022-12-11T08:00:42;36.27;;;22.97;;
15130;SDS011;7666;50.920;4.628;2022-12-11T08:03:29;34.00;;;22.93;;
15130;SDS011;7666;50.920;4.628;2022-12-11T08:06:15;33.67;;;22.07;;
15130;SDS011;7666;50.920;4.628;2022-12-11T08:09:02;32.70;;;22.47;;
15130;SDS011;7666;50.920;4.628;2022-12-11T08:11:50;29.77;;;21.47;;
15130;SDS011;7666;50.920;4.628;2022-12-11T08:14:36;33.40;;;21.40;;
15130;SDS011;7666;50.920;4.628;2022-12-11T08:17:22;33.97;;;22.47;;
15130;SDS011;7666;50.920;4.628;2022-12-11T08:20:08;29.70;;;20.57;;
15130;SDS011;7666;50.920;4.628;2022-12-11T08:22:55;32.43;;;21.07;;
15130;SDS011;7666;50.920;4.628;2022-12-11T08:25:41;33.53;;;22.20;;
15130;SDS011;7666;50.920;4.628;2022-12-11T08:28:27;32.53;;;21.37;;
15130;SDS011;7666;50.920;4.628;2022-12-11T08:31:14;37.67;;;23.33;;
15130;SDS011;7666;50.920;4.628;2022-12-11T08:34:01;31.60;;;22.00;;
15130;SDS011;7666;50.920;4.628;2022-12-11T08:36:47;34.37;;;21.80;;
15130;SDS011;7666;50.920;4.628;2022-12-11T08:39:33;31.00;;;21.50;;
15130;SDS011;7666;50.920;4.628;2022-12-11T08:42:19;34.20;;;21.63;;
15130;SDS011;7666;50.920;4.628;2022-12-11T08:45:05;33.20;;;21.90;;
15130;SDS011;7666;50.920;4.628;2022-12-11T08:47:51;33.20;;;21.60;;
15130;SDS011;7666;50.920;4.628;2022-12-11T08:50:38;33.00;;;21.60;;
15130;SDS011;7666;50.920;4.628;2022-12-11T08:53:24;32.60;;;21.43;;
15130;SDS011;7666;50.920;4.628;2022-12-11T08:56:11;32.33;;;20.63;;
15130;SDS011;7666;50.920;4.628;2022-12-11T08:58:59;33.73;;;21.30;;
15130;SDS011;7666;50.920;4.628;2022-12-11T09:01:45;34.17;;;21.03;;
15130;SDS011;7666;50.920;4.628;2022-12-11T09:04:31;28.50;;;20.47;;
15130;SDS011;7666;50.920;4.628;2022-12-11T09:07:17;29.57;;;19.63;;
15130;SDS011;7666;50.920;4.628;2022-12-11T09:10:04;33.23;;;20.73;;
15130;SDS011;7666;50.920;4.628;2022-12-11T09:12:51;31.30;;;20.90;;
15130;SDS011;7666;50.920;4.628;2022-12-11T09:15:40;29.07;;;20.33;;
15130;SDS011;7666;50.920;4.628;2022-12-11T09:18:26;30.97;;;21.03;;
15130;SDS011;7666;50.920;4.628;2022-12-11T09:21:13;30.63;;;21.03;;
15130;SDS011;7666;50.920;4.628;2022-12-11T09:24:01;30.27;;;20.97;;
15130;SDS011;7666;50.920;4.628;2022-12-11T09:26:47;29.83;;;19.67;;
15130;SDS011;7666;50.920;4.628;2022-12-11T09:29:33;31.03;;;19.77;;
15130;SDS011;7666;50.920;4.628;2022-12-11T09:32:19;29.77;;;19.10;;
15130;SDS011;7666;50.920;4.628;2022-12-11T09:35:05;29.47;;;20.10;;
15130;SDS011;7666;50.920;4.628;2022-12-11T09:37:52;29.87;;;19.97;;
15130;SDS011;7666;50.920;4.628;2022-12-11T09:40:39;29.27;;;20.20;;
15130;SDS011;7666;50.920;4.628;2022-12-11T09:43:33;29.30;;;20.87;;
15130;SDS011;7666;50.920;4.628;2022-12-11T09:46:36;31.50;;;20.20;;
15130;SDS011;7666;50.920;4.628;2022-12-11T09:49:30;29.83;;;19.30;;
15130;SDS011;7666;50.920;4.628;2022-12-11T09:55:21;29.10;;;19.47;;
15130;SDS011;7666;50.920;4.628;2022-12-11T09:58:12;29.07;;;19.60;;
15130;SDS011;7666;50.920;4.628;2022-12-11T10:01:25;27.20;;;18.90;;
15130;SDS011;7666;50.920;4.628;2022-12-11T10:18:58;24.97;;;18.43;;
15130;SDS011;7666;50.920;4.628;2022-12-11T10:21:44;24.73;;;18.07;;
15130;SDS011;7666;50.920;4.628;2022-12-11T10:24:46;25.67;;;17.20;;
15130;SDS011;7666;50.920;4.628;2022-12-11T10:27:40;25.53;;;17.77;;
15130;SDS011;7666;50.920;4.628;2022-12-11T10:30:28;25.33;;;18.10;;
15130;SDS011;7666;50.920;4.628;2022-12-11T10:33:21;23.83;;;17.13;;
15130;SDS011;7666;50.920;4.628;2022-12-11T10:36:18;23.30;;;16.60;;
15130;SDS011;7666;50.920;4.628;2022-12-11T10:39:28;25.77;;;18.03;;
15130;SDS011;7666;50.920;4.628;2022-12-11T10:42:18;27.93;;;19.33;;
15130;SDS011;7666;50.920;4.628;2022-12-11T10:45:06;25.13;;;18.17;;
15130;SDS011;7666;50.920;4.628;2022-12-11T10:48:14;26.20;;;17.70;;
15130;SDS011;7666;50.920;4.628;2022-12-11T10:53:50;26.43;;;18.07;;
15130;SDS011;7666;50.920;4.628;2022-12-11T10:56:38;27.77;;;17.30;;
15130;SDS011;7666;50.920;4.628;2022-12-11T10:59:35;26.90;;;18.60;;
15130;SDS011;7666;50.920;4.628;2022-12-11T11:05:29;27.43;;;18.03;;
15130;SDS011;7666;50.920;4.628;2022-12-11T11:08:20;26.97;;;17.37;;
15130;SDS011;7666;50.920;4.628;2022-12-11T11:11:14;24.07;;;17.03;;
15130;SDS011;7666;50.920;4.628;2022-12-11T11:14:13;24.47;;;16.50;;
15130;SDS011;7666;50.920;4.628;2022-12-11T11:17:00;24.80;;;16.40;;
15130;SDS011;7666;50.920;4.628;2022-12-11T11:19:46;24.37;;;15.70;;
15130;SDS011;7666;50.920;4.628;2022-12-11T11:22:35;25.23;;;17.13;;
15130;SDS011;7666;50.920;4.628;2022-12-11T11:25:25;25.00;;;16.40;;
15130;SDS011;7666;50.920;4.628;2022-12-11T11:28:17;25.63;;;17.23;;
15130;SDS011;7666;50.920;4.628;2022-12-11T11:34:07;25.70;;;16.80;;
15130;SDS011;7666;50.920;4.628;2022-12-11T11:36:59;25.73;;;16.87;;
15130;SDS011;7666;50.920;4.628;2022-12-11T11:39:50;24.57;;;16.67;;
15130;SDS011;7666;50.920;4.628;2022-12-11T11:42:41;23.20;;;15.90;;
15130;SDS011;7666;50.920;4.628;2022-12-11T11:45:52;22.50;;;15.70;;
15130;SDS011;7666;50.920;4.628;2022-12-11T11:51:36;23.17;;;15.53;;
15130;SDS011;7666;50.920;4.628;2022-12-11T11:54:30;24.20;;;15.50;;
15130;SDS011;7666;50.920;4.628;2022-12-11T11:57:28;22.60;;;15.13;;
15130;SDS011;7666;50.920;4.628;2022-12-11T12:00:23;22.23;;;15.57;;
15130;SDS011;7666;50.920;4.628;2022-12-11T12:03:17;22.67;;;14.30;;
15130;SDS011;7666;50.920;4.628;2022-12-11T12:06:16;24.13;;;15.33;;
15130;SDS011;7666;50.920;4.628;2022-12-11T12:15:39;21.77;;;14.23;;
15130;SDS011;7666;50.920;4.628;2022-12-11T12:19:10;21.00;;;13.93;;
15130;SDS011;7666;50.920;4.628;2022-12-11T12:21:51;20.83;;;13.77;;
15130;SDS011;7666;50.920;4.628;2022-12-11T12:24:42;22.50;;;13.83;;
15130;SDS011;7666;50.920;4.628;2022-12-11T12:27:43;18.30;;;12.93;;
15130;SDS011;7666;50.920;4.628;2022-12-11T12:30:57;19.93;;;13.03;;
15130;SDS011;7666;50.920;4.628;2022-12-11T12:43:50;20.77;;;12.23;;
15130;SDS011;7666;50.920;4.628;2022-12-11T12:49:40;19.17;;;12.20;;
15130;SDS011;7666;50.920;4.628;2022-12-11T12:52:31;20.07;;;12.90;;
15130;SDS011;7666;50.920;4.628;2022-12-11T12:55:26;20.53;;;12.30;;
15130;SDS011;7666;50.920;4.628;2022-12-11T13:01:22;23.70;;;13.20;;
15130;SDS011;7666;50.920;4.628;2022-12-11T13:04:25;19.77;;;11.97;;
15130;SDS011;7666;50.920;4.628;2022-12-11T13:07:27;19.63;;;12.13;;
15130;SDS011;7666;50.920;4.628;2022-12-11T13:10:59;19.60;;;12.17;;
15130;SDS011;7666;50.920;4.628;2022-12-11T13:13:35;22.10;;;13.07;;
15130;SDS011;7666;50.920;4.628;2022-12-11T13:16:25;21.27;;;12.47;;
15130;SDS011;7666;50.920;4.628;2022-12-11T13:24:59;20.07;;;12.73;;
15130;SDS011;7666;50.920;4.628;2022-12-11T13:28:06;24.33;;;14.00;;
15130;SDS011;7666;50.920;4.628;2022-12-11T13:34:07;22.30;;;13.03;;
15130;SDS011;7666;50.920;4.628;2022-12-11T13:36:53;23.63;;;14.03;;
15130;SDS011;7666;50.920;4.628;2022-12-11T13:39:39;20.90;;;13.20;;
15130;SDS011;7666;50.920;4.628;2022-12-11T13:42:35;19.93;;;12.50;;
15130;SDS011;7666;50.920;4.628;2022-12-11T13:48:32;21.17;;;12.50;;
15130;SDS011;7666;50.920;4.628;2022-12-11T13:51:22;23.90;;;13.77;;
15130;SDS011;7666;50.920;4.628;2022-12-11T13:57:11;23.60;;;14.50;;
15130;SDS011;7666;50.920;4.628;2022-12-11T14:00:17;21.10;;;14.10;;
15130;SDS011;7666;50.920;4.628;2022-12-11T14:03:09;21.07;;;13.60;;
15130;SDS011;7666;50.920;4.628;2022-12-11T14:05:55;24.80;;;14.40;;
15130;SDS011;7666;50.920;4.628;2022-12-11T14:08:42;23.40;;;14.13;;
15130;SDS011;7666;50.920;4.628;2022-12-11T14:11:33;22.30;;;13.77;;
15130;SDS011;7666;50.920;4.628;2022-12-11T14:14:41;22.47;;;14.17;;
15130;SDS011;7666;50.920;4.628;2022-12-11T14:17:30;22.17;;;13.70;;
15130;SDS011;7666;50.920;4.628;2022-12-11T14:20:20;23.40;;;14.13;;
15130;SDS011;7666;50.920;4.628;2022-12-11T14:23:16;23.97;;;13.83;;
15130;SDS011;7666;50.920;4.628;2022-12-11T14:26:15;21.43;;;13.70;;
15130;SDS011;7666;50.920;4.628;2022-12-11T14:29:04;23.23;;;14.10;;
15130;SDS011;7666;50.920;4.628;2022-12-11T14:31:50;24.10;;;14.67;;
15130;SDS011;7666;50.920;4.628;2022-12-11T14:34:39;25.27;;;14.37;;
15130;SDS011;7666;50.920;4.628;2022-12-11T14:37:29;22.87;;;14.27;;
15130;SDS011;7666;50.920;4.628;2022-12-11T14:40:17;21.77;;;14.47;;
15130;SDS011;7666;50.920;4.628;2022-12-11T14:43:10;24.07;;;13.77;;
15130;SDS011;7666;50.920;4.628;2022-12-11T14:46:06;21.40;;;14.43;;
15130;SDS011;7666;50.920;4.628;2022-12-11T14:48:56;22.73;;;14.17;;
15130;SDS011;7666;50.920;4.628;2022-12-11T14:51:47;24.47;;;14.77;;
15130;SDS011;7666;50.920;4.628;2022-12-11T14:54:37;22.20;;;14.00;;
15130;SDS011;7666;50.920;4.628;2022-12-11T14:57:29;24.97;;;14.70;;
15130;SDS011;7666;50.920;4.628;2022-12-11T15:00:24;23.30;;;14.23;;
15130;SDS011;7666;50.920;4.628;2022-12-11T15:03:21;24.20;;;14.20;;
15130;SDS011;7666;50.920;4.628;2022-12-11T15:06:27;21.90;;;14.13;;
15130;SDS011;7666;50.920;4.628;2022-12-11T15:09:18;20.27;;;13.30;;
15130;SDS011;7666;50.920;4.628;2022-12-11T15:12:10;23.70;;;14.63;;
15130;SDS011;7666;50.920;4.628;2022-12-11T15:14:59;24.90;;;14.73;;
15130;SDS011;7666;50.920;4.628;2022-12-11T15:17:48;23.90;;;14.70;;
15130;SDS011;7666;50.920;4.628;2022-12-11T15:20:36;24.63;;;15.30;;
15130;SDS011;7666;50.920;4.628;2022-12-11T15:23:22;24.33;;;15.93;;
15130;SDS011;7666;50.920;4.628;2022-12-11T15:26:08;28.50;;;16.27;;
15130;SDS011;7666;50.920;4.628;2022-12-11T15:28:58;25.83;;;15.40;;
15130;SDS011;7666;50.920;4.628;2022-12-11T15:31:45;23.90;;;15.50;;
15130;SDS011;7666;50.920;4.628;2022-12-11T15:34:41;27.23;;;16.93;;
15130;SDS011;7666;50.920;4.628;2022-12-11T15:37:50;25.80;;;16.77;;
15130;SDS011;7666;50.920;4.628;2022-12-11T15:40:40;27.37;;;16.97;;
15130;SDS011;7666;50.920;4.628;2022-12-11T15:43:27;30.07;;;19.20;;
15130;SDS011;7666;50.920;4.628;2022-12-11T15:46:14;27.33;;;17.80;;
15130;SDS011;7666;50.920;4.628;2022-12-11T15:49:00;24.50;;;16.40;;
15130;SDS011;7666;50.920;4.628;2022-12-11T15:51:46;26.60;;;16.83;;
15130;SDS011;7666;50.920;4.628;2022-12-11T15:54:32;24.80;;;16.23;;
15130;SDS011;7666;50.920;4.628;2022-12-11T15:57:18;25.97;;;16.47;;
15130;SDS011;7666;50.920;4.628;2022-12-11T16:00:09;28.80;;;16.77;;
15130;SDS011;7666;50.920;4.628;2022-12-11T16:02:59;27.73;;;17.57;;
15130;SDS011;7666;50.920;4.628;2022-12-11T16:05:45;25.70;;;16.23;;
15130;SDS011;7666;50.920;4.628;2022-12-11T16:08:33;27.47;;;16.33;;
15130;SDS011;7666;50.920;4.628;2022-12-11T16:11:18;26.60;;;17.07;;
15130;SDS011;7666;50.920;4.628;2022-12-11T16:14:04;25.20;;;16.37;;
15130;SDS011;7666;50.920;4.628;2022-12-11T16:16:50;28.07;;;18.07;;
15130;SDS011;7666;50.920;4.628;2022-12-11T16:19:37;28.43;;;17.43;;
15130;SDS011;7666;50.920;4.628;2022-12-11T16:22:23;28.33;;;19.43;;
15130;SDS011;7666;50.920;4.628;2022-12-11T16:25:09;35.43;;;21.23;;
15130;SDS011;7666;50.920;4.628;2022-12-11T16:27:56;34.30;;;21.20;;
15130;SDS011;7666;50.920;4.628;2022-12-11T16:30:43;32.83;;;21.40;;
15130;SDS011;7666;50.920;4.628;2022-12-11T16:33:29;33.93;;;20.33;;
15130;SDS011;7666;50.920;4.628;2022-12-11T16:36:16;30.00;;;20.47;;
15130;SDS011;7666;50.920;4.628;2022-12-11T16:39:03;32.47;;;20.33;;
15130;SDS011;7666;50.920;4.628;2022-12-11T16:41:49;34.70;;;21.73;;
15130;SDS011;7666;50.920;4.628;2022-12-11T16:44:35;34.27;;;21.37;;
15130;SDS011;7666;50.920;4.628;2022-12-11T16:47:21;30.07;;;19.57;;
15130;SDS011;7666;50.920;4.628;2022-12-11T16:50:08;30.47;;;18.77;;
15130;SDS011;7666;50.920;4.628;2022-12-11T16:52:54;28.33;;;17.60;;
15130;SDS011;7666;50.920;4.628;2022-12-11T16:55:41;25.07;;;15.80;;
15130;SDS011;7666;50.920;4.628;2022-12-11T16:58:27;23.13;;;16.37;;
15130;SDS011;7666;50.920;4.628;2022-12-11T17:01:13;26.73;;;17.17;;
15130;SDS011;7666;50.920;4.628;2022-12-11T17:04:00;26.93;;;18.60;;
15130;SDS011;7666;50.920;4.628;2022-12-11T17:06:46;25.70;;;17.23;;
15130;SDS011;7666;50.920;4.628;2022-12-11T17:09:33;26.33;;;17.47;;
15130;SDS011;7666;50.920;4.628;2022-12-11T17:12:19;25.33;;;17.37;;
15130;SDS011;7666;50.920;4.628;2022-12-11T17:15:11;26.23;;;17.70;;
15130;SDS011;7666;50.920;4.628;2022-12-11T17:17:57;26.20;;;17.57;;
15130;SDS011;7666;50.920;4.628;2022-12-11T17:20:43;24.47;;;16.87;;
15130;SDS011;7666;50.920;4.628;2022-12-11T17:23:29;28.63;;;17.43;;
15130;SDS011;7666;50.920;4.628;2022-12-11T17:26:16;24.03;;;17.07;;
15130;SDS011;7666;50.920;4.628;2022-12-11T17:29:03;29.10;;;18.47;;
15130;SDS011;7666;50.920;4.628;2022-12-11T17:31:48;27.40;;;19.13;;
15130;SDS011;7666;50.920;4.628;2022-12-11T17:34:34;29.80;;;19.90;;
15130;SDS011;7666;50.920;4.628;2022-12-11T17:37:21;29.90;;;19.30;;
15130;SDS011;7666;50.920;4.628;2022-12-11T17:40:07;29.13;;;19.73;;
15130;SDS011;7666;50.920;4.628;2022-12-11T17:42:53;30.97;;;19.47;;
15130;SDS011;7666;50.920;4.628;2022-12-11T17:45:40;28.93;;;19.33;;
15130;SDS011;7666;50.920;4.628;2022-12-11T17:48:30;28.73;;;19.30;;
15130;SDS011;7666;50.920;4.628;2022-12-11T17:51:17;30.47;;;18.80;;
15130;SDS011;7666;50.920;4.628;2022-12-11T17:54:08;29.40;;;18.63;;
15130;SDS011;7666;50.920;4.628;2022-12-11T17:56:54;28.63;;;18.37;;
15130;SDS011;7666;50.920;4.628;2022-12-11T17:59:40;30.97;;;18.80;;
15130;SDS011;7666;50.920;4.628;2022-12-11T18:02:26;27.37;;;17.80;;
15130;SDS011;7666;50.920;4.628;2022-12-11T18:05:12;28.67;;;18.07;;
15130;SDS011;7666;50.920;4.628;2022-12-11T18:07:58;28.47;;;18.47;;
15130;SDS011;7666;50.920;4.628;2022-12-11T18:10:44;29.00;;;18.50;;
15130;SDS011;7666;50.920;4.628;2022-12-11T18:13:30;27.70;;;17.47;;